Time;durP1;ratioP1;P1;durP2;ratioP2;P2;SDS_P1;SDS_P2;PMS_P1;PMS_P2;Temp;Humidity;BMP_temperature;BMP_pressure;BME280_temperature;BME280_humidity;BME280_pressure;Samples;Min_cycle;Max_cycle;Signal;HPM_P1;HPM_P2
2023/01/26 00:00:46;;;;;;;7.27;6.63;;;;;;;21.04;31.81;95488.59;6090863;28;111284;-61
2023/01/26 00:03:50;;;;;;;7.30;6.70;;;;;;;21.04;31.44;95496.56;6081950;28;108990;-61
2023/01/26 00:06:53;;;;;;;6.73;6.23;;;;;;;20.91;31.46;95476.78;6091081;28;110540;-61
2023/01/26 00:09:56;;;;;;;7.00;6.40;;;;;;;21.03;31.52;95509.06;6089542;28;109038;-61
2023/01/26 00:12:59;;;;;;;6.50;5.93;;;;;;;21.01;31.48;95483.84;6082090;28;109449;-61
2023/01/26 00:16:09;;;;;;;7.57;6.97;;;;;;;21.00;31.46;95498.97;6090040;28;109184;-61
2023/01/26 00:19:14;;;;;;;6.60;6.00;;;;;;;21.00;31.58;95498.97;6090833;28;109034;-61
2023/01/26 00:22:17;;;;;;;7.30;6.70;;;;;;;20.94;31.70;95492.16;6091214;28;108957;-62
2023/01/26 00:25:21;;;;;;;6.87;6.27;;;;;;;20.87;31.36;95484.53;6061811;28;110255;-62
2023/01/26 00:28:24;;;;;;;7.50;6.90;;;;;;;20.98;31.33;95506.47;6067014;28;110251;-62
2023/01/26 00:31:28;;;;;;;6.70;6.17;;;;;;;20.96;31.54;95491.88;6065652;28;109203;-62
2023/01/26 00:34:31;;;;;;;7.47;6.87;;;;;;;20.97;31.50;95488.91;6065591;28;110063;-62
2023/01/26 00:37:34;;;;;;;7.27;6.63;;;;;;;20.89;31.25;95458.44;6067865;28;109673;-63
2023/01/26 00:40:40;;;;;;;7.10;6.50;;;;;;;;;;6091141;28;109043;-62
2023/01/26 00:43:43;;;;;;;6.77;6.13;;;;;;;20.95;31.32;95474.31;6090575;28;110119;-62
2023/01/26 00:46:49;;;;;;;6.87;6.27;;;;;;;20.92;31.20;95465.06;6061583;28;110164;-62
2023/01/26 00:49:52;;;;;;;6.70;6.10;;;;;;;20.92;31.29;95473.81;6062279;28;110157;-62
2023/01/26 00:52:55;;;;;;;7.40;6.70;;;;;;;20.90;31.32;95465.34;6066693;28;109187;-62
2023/01/26 00:55:58;;;;;;;7.30;6.70;;;;;;;20.92;31.11;95465.84;6067724;28;110212;-62
2023/01/26 00:59:01;;;;;;;7.43;6.83;;;;;;;20.90;31.11;95456.56;6079485;28;109559;-62
2023/01/26 01:02:07;;;;;;;6.60;6.10;;;;;;;20.90;31.00;95454.69;6089049;28;108909;-62
2023/01/26 01:05:11;;;;;;;7.40;6.70;;;;;;;20.90;31.26;95448.59;6090657;28;109086;-62
2023/01/26 01:08:14;;;;;;;6.73;6.13;;;;;;;20.89;30.92;95452.34;6089951;28;109044;-62
2023/01/26 01:11:17;;;;;;;6.83;6.23;;;;;;;20.86;31.21;95442.28;6077631;28;110153;-62
2023/01/26 01:14:20;;;;;;;6.83;6.23;;;;;;;20.87;31.25;95441.97;6089867;28;109077;-62
2023/01/26 01:17:24;;;;;;;6.80;6.20;;;;;;;20.86;31.26;95447.59;6089872;28;109112;-62
2023/01/26 01:20:29;;;;;;;6.70;6.10;;;;;;;20.84;31.34;95442.56;6064120;28;109550;-62
2023/01/26 01:23:32;;;;;;;6.70;6.10;;;;;;;20.84;31.27;95434.59;6060516;28;109311;-61
2023/01/26 01:26:35;;;;;;;6.17;5.67;;;;;;;20.83;30.76;95437.50;6066230;28;109794;-61
2023/01/26 01:29:45;;;;;;;6.97;6.27;;;;;;;20.85;30.93;95427.41;6066138;28;110473;-62
2023/01/26 01:32:51;;;;;;;6.93;6.33;;;;;;;20.82;31.04;95434.06;6053820;28;109639;-62
2023/01/26 01:36:02;;;;;;;7.27;6.67;;;;;;;20.83;30.77;95432.19;6079371;28;110190;-62
2023/01/26 01:39:05;;;;;;;6.43;5.90;;;;;;;20.80;31.04;95432.78;6089386;28;109089;-62
2023/01/26 01:42:08;;;;;;;6.37;5.87;;;;;;;20.81;30.81;95432.47;6080307;28;109400;-62
2023/01/26 01:45:39;;;;;;;6.53;5.97;;;;;;;20.69;31.02;95418.84;6054254;28;109705;-62
2023/01/26 01:48:52;;;;;;;6.23;5.73;;;;;;;20.80;30.79;95435.44;6074183;28;110422;-61
2023/01/26 01:52:09;;;;;;;6.13;5.63;;;;;;;20.80;31.09;95430.91;6089160;28;109176;-62
2023/01/26 01:55:15;;;;;;;6.63;6.13;;;;;;;20.80;31.08;95436.22;6079006;28;109105;-62
2023/01/26 01:58:19;;;;;;;6.50;5.90;;;;;;;20.80;30.87;95435.44;6088373;28;109292;-62
2023/01/26 02:01:22;;;;;;;6.47;5.97;;;;;;;20.80;30.91;95430.09;6088868;28;109582;-62
2023/01/26 02:04:27;;;;;;;6.03;5.53;;;;;;;20.79;31.24;95420.53;6088671;28;110041;-62
2023/01/26 02:07:33;;;;;;;6.63;6.03;;;;;;;20.78;30.79;95416.31;6069224;28;109245;-62
2023/01/26 02:10:37;;;;;;;6.47;5.87;;;;;;;20.73;30.71;95406.53;6065363;28;110462;-62
2023/01/26 02:13:43;;;;;;;6.23;5.73;;;;;;;20.75;30.82;95409.69;6065178;28;110451;-62
2023/01/26 02:16:46;;;;;;;5.97;5.47;;;;;;;20.76;31.16;95413.16;6065444;28;109049;-62
2023/01/26 02:20:01;;;;;;;6.20;5.70;;;;;;;20.75;31.07;95401.72;6055002;28;110398;-62
2023/01/26 02:23:10;;;;;;;6.13;5.53;;;;;;;20.68;30.96;95382.69;6068899;28;110125;-62
2023/01/26 02:26:17;;;;;;;6.17;5.67;;;;;;;20.73;30.85;95373.84;6063250;28;109116;-61
2023/01/26 02:29:22;;;;;;;6.03;5.53;;;;;;;20.69;31.19;95372.84;6055468;28;110491;-61
2023/01/26 02:32:27;;;;;;;5.90;5.40;;;;;;;20.74;30.70;95381.53;6064387;28;109604;-61
2023/01/26 02:35:30;;;;;;;6.33;5.83;;;;;;;20.74;30.95;95367.44;6064960;28;109169;-61
2023/01/26 02:38:40;;;;;;;5.80;5.30;;;;;;;20.73;30.81;95371.19;6064763;28;109343;-61
2023/01/26 02:45:03;;;;;;;5.57;5.17;;;;;;;20.72;30.93;95365.06;6042259;28;110231;-61
2023/01/26 02:48:07;;;;;;;5.83;5.33;;;;;;;20.71;30.79;95358.19;6065442;28;109509;-61
2023/01/26 02:51:09;;;;;;;5.13;4.73;;;;;;;20.59;30.84;95336.53;6064748;28;110243;-60
2023/01/26 02:55:21;;;;;;;4.63;4.30;;;;;;;20.70;30.71;95350.50;6055479;28;111277;-61
2023/01/26 02:57:35;;;;;;;5.47;4.97;;;;;;;20.69;31.00;95349.69;6065684;28;109348;-61
2023/01/26 03:00:41;;;;;;;4.97;4.57;;;;;;;20.68;30.50;95334.81;6080342;28;110919;-61
2023/01/26 03:03:44;;;;;;;5.30;4.90;;;;;;;20.68;30.26;95334.03;6081960;28;109069;-61
2023/01/26 03:06:47;;;;;;;4.60;4.17;;;;;;;20.68;30.05;95336.69;6091712;28;109326;-61
2023/01/26 03:09:50;;;;;;;4.20;3.90;;;;;;;20.71;30.07;95342.22;6091988;28;110472;-61
2023/01/26 03:12:55;;;;;;;4.33;4.03;;;;;;;20.71;30.16;95336.91;6091919;28;110218;-61
2023/01/26 03:16:01;;;;;;;5.03;4.53;;;;;;;20.75;29.95;95332.56;6058056;28;109761;-61
2023/01/26 03:29:08;;;;;;;4.60;4.20;;;;;;;20.79;30.21;95306.97;6087248;28;109054;-60
2023/01/26 03:32:11;;;;;;;4.50;4.10;;;;;;;20.80;30.03;95305.91;6090729;28;109220;-60
2023/01/26 03:35:15;;;;;;;4.10;3.80;;;;;;;20.79;29.92;95299.00;6091385;28;109216;-60
2023/01/26 03:38:18;;;;;;;3.60;3.30;;;;;;;20.79;29.88;95308.84;6082180;28;110966;-60
2023/01/26 03:58:08;;;;;;;3.90;3.60;;;;;;;20.75;29.86;95284.72;6091112;28;109381;-61
2023/01/26 04:01:18;;;;;;;3.77;3.47;;;;;;;20.76;30.10;95290.81;6079748;28;110224;-61
2023/01/26 04:11:04;;;;;;;3.03;2.83;;;;;;;20.73;29.79;95272.78;6085737;28;109459;-62
2023/01/26 04:24:23;;;;;;;3.60;3.30;;;;;;;20.73;29.89;95246.19;6079724;28;110169;-61
2023/01/26 04:27:26;;;;;;;4.20;3.87;;;;;;;20.73;30.38;95249.63;6079477;28;109094;-62
2023/01/26 04:30:29;;;;;;;3.30;3.10;;;;;;;20.70;30.12;95239.59;6072395;28;110263;-61
2023/01/26 04:33:34;;;;;;;6.23;5.80;;;;;;;20.72;30.25;95248.06;6064875;28;109179;-62
2023/01/26 04:36:37;;;;;;;4.13;3.83;;;;;;;20.73;30.38;95244.31;6072873;28;110053;-62
2023/01/26 04:39:40;;;;;;;4.87;4.23;;;;;;;20.78;30.63;95244.22;6089783;28;110192;-62
2023/01/26 04:42:43;;;;;;;3.90;3.60;;;;;;;20.74;30.22;95243.25;6089526;28;109243;-61
2023/01/26 04:45:57;;;;;;;4.53;4.13;;;;;;;20.68;30.75;95236.44;6080918;28;110088;-61
2023/01/26 04:49:02;;;;;;;3.23;3.03;;;;;;;20.64;30.30;95230.09;6083226;28;110011;-61
2023/01/26 04:52:05;;;;;;;4.00;3.70;;;;;;;20.69;30.51;95238.00;6066397;28;109187;-62
2023/01/26 04:55:09;;;;;;;3.67;3.37;;;;;;;20.69;30.85;95238.00;6066974;28;108805;-63
2023/01/26 04:58:12;;;;;;;3.70;3.40;;;;;;;20.83;30.68;95246.78;6055694;28;109220;-63
2023/01/26 05:01:15;;;;;;;4.37;3.63;;;;;;;20.74;31.43;95229.94;6073917;28;109147;-61
2023/01/26 05:04:19;;;;;;;3.87;3.47;;;;;;;20.81;30.81;95246.28;6078282;28;109087;-61
2023/01/26 05:07:22;;;;;;;4.47;3.50;;;;;;;20.85;31.03;95251.84;6086569;28;109198;-61
2023/01/26 05:10:26;;;;;;;3.50;3.20;;;;;;;20.83;31.50;95238.81;6080065;28;110226;-62
2023/01/26 05:13:31;;;;;;;3.80;3.50;;;;;;;20.92;31.33;95241.59;6088318;28;109071;-61
2023/01/26 05:16:34;;;;;;;4.77;3.43;;;;;;;20.92;31.50;95239.72;6088505;28;109710;-62
2023/01/26 05:19:39;;;;;;;4.63;3.70;;;;;;;20.89;31.48;95240.31;6079854;28;109072;-63
2023/01/26 05:22:42;;;;;;;3.30;3.10;;;;;;;20.87;31.55;95234.50;6062925;28;109481;-61
2023/01/26 05:25:45;;;;;;;3.60;3.00;;;;;;;20.88;32.77;95237.97;6066336;28;109333;-62
2023/01/26 05:28:48;;;;;;;5.20;3.13;;;;;;;20.86;33.09;95232.94;6066046;28;110417;-62
2023/01/26 05:31:51;;;;;;;5.40;3.00;;;;;;;20.87;33.16;95217.75;6055151;28;110095;-62
2023/01/26 05:34:56;;;;;;;5.20;3.40;;;;;;;20.82;33.13;95229.25;6065941;28;109099;-61
2023/01/26 05:37:59;;;;;;;3.33;3.03;;;;;;;20.82;32.97;95226.59;6065505;28;109317;-61
2023/01/26 05:41:06;;;;;;;3.80;3.00;;;;;;;20.82;33.25;95229.25;6065340;28;109117;-61
2023/01/26 05:44:09;;;;;;;4.43;3.40;;;;;;;20.80;33.18;95220.78;6053810;28;109110;-60
2023/01/26 05:47:12;;;;;;;4.20;3.90;;;;;;;20.83;32.77;95227.38;6065292;28;109596;-60
2023/01/26 05:50:17;;;;;;;3.30;3.00;;;;;;;20.79;33.03;95224.53;6065700;28;110061;-61
2023/01/26 05:53:20;;;;;;;4.87;3.80;;;;;;;20.77;32.87;95226.69;6060678;28;109905;-62
2023/01/26 05:56:26;;;;;;;4.40;4.10;;;;;;;20.79;32.78;95231.72;6060261;28;110970;-62
2023/01/26 05:59:30;;;;;;;3.80;3.50;;;;;;;20.78;32.81;95236.25;6065210;28;109333;-63
2023/01/26 06:02:33;;;;;;;4.17;3.87;;;;;;;20.76;32.78;95221.66;6065330;28;109331;-60
2023/01/26 06:05:38;;;;;;;4.33;3.93;;;;;;;20.77;32.76;95224.03;6054846;28;109475;-61
2023/01/26 06:08:42;;;;;;;4.40;4.00;;;;;;;20.71;32.68;95214.56;6065174;28;109140;-61
2023/01/26 06:11:46;;;;;;;4.83;4.43;;;;;;;20.75;32.85;95220.88;6065191;28;109911;-61
2023/01/26 06:14:49;;;;;;;4.80;4.40;;;;;;;20.72;32.53;95221.47;6064512;28;109667;-60
2023/01/26 06:17:52;;;;;;;4.90;4.50;;;;;;;20.74;32.75;95223.84;6055831;28;109756;-62
2023/01/26 06:21:00;;;;;;;5.40;5.00;;;;;;;20.66;32.46;95209.31;6064883;28;108975;-61
2023/01/26 06:24:03;;;;;;;5.00;4.57;;;;;;;20.71;32.43;95209.25;6064884;28;109376;-61
2023/01/26 06:27:13;;;;;;;5.13;4.70;;;;;;;20.68;32.10;95209.84;6064885;28;109219;-62
2023/01/26 06:30:18;;;;;;;5.50;5.00;;;;;;;20.68;32.30;95212.50;6057783;28;109358;-61
2023/01/26 06:33:24;;;;;;;5.53;5.03;;;;;;;20.68;32.09;95204.53;6063225;28;109249;-61
2023/01/26 06:36:32;;;;;;;4.73;4.33;;;;;;;20.67;32.02;95202.94;6065054;28;109158;-62
2023/01/26 06:39:36;;;;;;;6.37;5.13;;;;;;;20.66;32.28;95209.31;6054437;28;109507;-61
2023/01/26 06:42:50;;;;;;;5.43;4.93;;;;;;;20.68;31.79;95209.84;6064777;28;109462;-61
2023/01/26 06:45:55;;;;;;;5.90;5.50;;;;;;;20.68;31.72;95203.75;6064119;28;110385;-61
2023/01/26 06:49:02;;;;;;;5.80;5.23;;;;;;;20.65;31.69;95194.44;6064753;28;110065;-60
2023/01/26 06:52:22;;;;;;;5.10;4.70;;;;;;;20.67;31.55;95205.63;6053321;28;110301;-61
2023/01/26 06:55:37;;;;;;;5.23;4.50;;;;;;;20.67;31.23;95197.63;6063710;28;109698;-61
2023/01/26 06:58:40;;;;;;;4.70;4.40;;;;;;;20.54;31.10;95177.13;6064419;28;109088;-60
2023/01/26 07:01:47;;;;;;;5.27;4.87;;;;;;;20.65;31.23;95193.66;6060525;28;109663;-61
2023/01/26 07:04:52;;;;;;;5.37;4.60;;;;;;;20.65;31.27;95199.78;6059198;28;109971;-60
2023/01/26 07:07:59;;;;;;;4.87;4.47;;;;;;;20.66;30.93;95197.91;6064944;28;110798;-60
2023/01/26 07:11:02;;;;;;;5.20;4.63;;;;;;;20.61;30.75;95183.63;6064097;28;109271;-61
2023/01/26 07:14:06;;;;;;;4.53;4.13;;;;;;;20.66;30.95;95185.41;6054054;28;109911;-62
2023/01/26 07:17:11;;;;;;;5.10;4.70;;;;;;;20.66;30.88;95179.28;6063365;28;109675;-61
2023/01/26 07:20:14;;;;;;;4.87;4.47;;;;;;;20.67;30.97;95176.38;6064132;28;110334;-61
2023/01/26 07:23:19;;;;;;;4.97;4.57;;;;;;;20.72;30.40;95162.97;6063997;28;109037;-61
2023/01/26 07:26:24;;;;;;;4.70;4.30;;;;;;;20.81;30.72;95176.34;6054426;28;110851;-60
2023/01/26 07:29:34;;;;;;;5.20;4.70;;;;;;;20.80;30.81;95167.59;6063872;28;109168;-61
2023/01/26 07:32:37;;;;;;;4.53;4.13;;;;;;;20.80;30.69;95169.47;6063494;28;109989;-61
2023/01/26 07:35:40;;;;;;;5.00;4.60;;;;;;;20.85;30.79;95180.03;6059202;28;108964;-61
2023/01/26 07:38:44;;;;;;;4.80;4.43;;;;;;;20.73;30.85;95166.41;6059179;28;109075;-60
2023/01/26 07:41:50;;;;;;;5.17;4.77;;;;;;;20.74;31.00;95160.81;6063562;28;109140;-65
2023/01/26 07:44:53;;;;;;;5.37;4.87;;;;;;;20.74;31.31;95154.69;6066836;28;109272;-62
2023/01/26 07:47:58;;;;;;;4.60;4.20;;;;;;;20.73;31.29;95156.56;6056051;28;109032;-61
2023/01/26 07:51:03;;;;;;;4.70;4.27;;;;;;;20.71;31.06;95161.41;6068173;28;109568;-61
2023/01/26 07:54:10;;;;;;;5.20;4.80;;;;;;;20.72;30.85;95162.19;6067663;28;109283;-62
2023/01/26 07:57:13;;;;;;;4.70;4.30;;;;;;;20.70;30.75;95159.03;6067619;28;109160;-62
2023/01/26 08:00:18;;;;;;;6.33;4.33;;;;;;;20.68;30.74;95163.84;6057250;28;110547;-62
2023/01/26 08:03:24;;;;;;;4.67;4.27;;;;;;;20.68;30.78;95155.88;6067634;28;109071;-60
2023/01/26 08:06:27;;;;;;;4.67;4.33;;;;;;;20.67;30.96;95149.78;6067447;28;109604;-60
2023/01/26 08:09:32;;;;;;;4.90;4.50;;;;;;;20.66;30.72;95153.50;6064748;28;109013;-61
2023/01/26 08:12:39;;;;;;;4.33;4.03;;;;;;;20.66;30.59;95148.16;6061487;28;109538;-61
2023/01/26 08:15:44;;;;;;;4.93;4.53;;;;;;;20.64;30.41;95134.38;6067279;28;109184;-61
2023/01/26 08:18:47;;;;;;;4.33;4.03;;;;;;;20.60;30.66;95134.19;6066727;28;109508;-61
2023/01/26 08:21:53;;;;;;;5.30;3.93;;;;;;;20.58;30.22;95136.34;6057361;28;110651;-61
2023/01/26 08:25:00;;;;;;;3.80;3.50;;;;;;;20.66;30.26;95139.41;6067413;28;110201;-60
2023/01/26 08:28:03;;;;;;;4.00;3.70;;;;;;;20.67;30.42;95136.47;6066320;28;109214;-61
2023/01/26 08:31:12;;;;;;;4.17;3.77;;;;;;;20.66;30.34;95144.72;6066820;28;109243;-61
2023/01/26 08:34:15;;;;;;;3.70;3.40;;;;;;;20.66;30.35;95129.56;6055873;28;109158;-62
2023/01/26 08:37:18;;;;;;;3.90;3.60;;;;;;;20.67;29.98;95127.69;6067139;28;109111;-61
2023/01/26 08:40:24;;;;;;;4.00;3.70;;;;;;;20.64;30.17;95118.44;6067502;28;109058;-60
2023/01/26 08:43:30;;;;;;;3.93;3.60;;;;;;;20.65;30.32;95120.00;6065611;28;109067;-61
2023/01/26 08:46:39;;;;;;;3.20;3.00;;;;;;;20.67;29.79;95128.50;6059623;28;109461;-58
2023/01/26 08:49:42;;;;;;;6.20;3.20;;;;;;;20.68;29.80;95118.66;6066366;28;111495;-60
2023/01/26 08:52:45;;;;;;;3.80;3.50;;;;;;;20.67;29.84;95128.50;6066646;28;108873;-60
2023/01/26 08:55:49;;;;;;;3.53;3.23;;;;;;;20.67;29.61;95136.47;6055708;28;109098;-61
2023/01/26 08:58:55;;;;;;;3.20;2.80;;;;;;;20.66;29.54;95132.22;6066373;28;109585;-60
2023/01/26 09:02:00;;;;;;;3.43;3.23;;;;;;;20.66;29.36;95120.78;6066438;28;110339;-59
2023/01/26 09:05:04;;;;;;;3.90;3.60;;;;;;;20.67;29.34;95125.84;6066323;28;109068;-60
2023/01/26 09:08:10;;;;;;;3.53;3.23;;;;;;;20.68;29.37;95130.06;6057076;28;110190;-62
2023/01/26 09:11:15;;;;;;;3.70;3.40;;;;;;;20.61;29.37;95121.69;6066728;28;109061;-60
2023/01/26 09:14:20;;;;;;;3.20;3.00;;;;;;;20.67;29.42;95120.53;6066708;28;108810;-61
2023/01/26 09:17:23;;;;;;;3.27;3.07;;;;;;;20.68;29.52;95119.44;6066140;28;109193;-61
2023/01/26 09:20:29;;;;;;;3.53;3.23;;;;;;;20.69;29.32;95110.38;6055413;28;109232;-61
2023/01/26 09:23:33;;;;;;;3.00;2.80;;;;;;;20.70;29.29;95111.97;6066322;28;110215;-61
2023/01/26 09:26:38;;;;;;;3.40;3.10;;;;;;;20.70;29.43;95098.66;6066552;28;109112;-61
2023/01/26 09:29:41;;;;;;;3.70;3.40;;;;;;;20.66;29.42;95097.66;6057392;28;109139;-62
2023/01/26 09:32:46;;;;;;;3.40;3.20;;;;;;;20.65;29.39;95093.41;6064787;28;109881;-62
2023/01/26 09:35:49;;;;;;;3.40;3.20;;;;;;;20.51;29.65;95063.41;6065749;28;109239;-61
2023/01/26 09:38:54;;;;;;;2.90;2.70;;;;;;;20.66;29.33;95083.56;6065226;28;109102;-61
2023/01/26 09:42:12;;;;;;;2.73;2.50;;;;;;;20.66;29.40;95088.88;6055874;28;111441;-61
2023/01/26 09:45:30;;;;;;;3.37;3.07;;;;;;;20.64;29.58;95094.50;6065479;28;109118;-61
2023/01/26 09:48:43;;;;;;;3.20;3.00;;;;;;;20.66;29.36;95094.22;6065444;28;109223;-62
2023/01/26 09:51:49;;;;;;;3.17;2.90;;;;;;;20.63;29.60;95076.97;6060686;28;108977;-62
2023/01/26 09:54:56;;;;;;;3.23;2.93;;;;;;;20.63;29.45;95074.31;6060548;28;109633;-61
2023/01/26 09:58:06;;;;;;;3.07;2.80;;;;;;;20.51;29.30;95045.59;6065192;28;109025;-61
2023/01/26 10:01:18;;;;;;;3.03;2.83;;;;;;;20.62;29.33;95059.44;6065460;28;109078;-61
2023/01/26 10:04:32;;;;;;;2.47;2.27;;;;;;;20.62;29.36;95062.09;6055218;28;109823;-61
2023/01/26 10:07:36;;;;;;;3.20;3.00;;;;;;;20.61;29.43;95065.84;6064546;28;109383;-61
2023/01/26 10:10:44;;;;;;;2.77;2.57;;;;;;;20.63;29.51;95063.69;6065103;28;109226;-61
2023/01/26 10:13:55;;;;;;;3.23;3.03;;;;;;;20.63;29.21;95066.34;6065321;28;109125;-62
2023/01/26 10:17:05;;;;;;;3.00;2.80;;;;;;;20.54;29.14;95050.31;6054838;28;110090;-61
2023/01/26 10:20:22;;;;;;;2.50;2.30;;;;;;;20.59;29.15;95047.53;6065161;28;110063;-60
2023/01/26 10:23:28;;;;;;;2.50;2.30;;;;;;;20.63;29.24;95029.13;6063867;28;109869;-61
2023/01/26 10:26:33;;;;;;;2.97;2.67;;;;;;;20.63;29.18;95029.13;6055635;28;109105;-61
2023/01/26 10:29:38;;;;;;;2.20;2.10;;;;;;;20.62;28.93;95019.56;6064510;28;110203;-61
2023/01/26 10:32:43;;;;;;;2.57;2.37;;;;;;;20.62;29.20;95008.94;6064545;28;109081;-61
2023/01/26 10:35:47;;;;;;;2.50;2.30;;;;;;;20.61;29.24;95002.84;6064496;28;108818;-60
2023/01/26 10:38:52;;;;;;;2.37;2.17;;;;;;;20.52;29.25;94987.88;6053627;28;109100;-60
2023/01/26 10:42:00;;;;;;;2.53;2.33;;;;;;;20.63;29.13;94987.38;6064712;28;109468;-60
2023/01/26 10:45:07;;;;;;;2.23;2.13;;;;;;;20.65;29.37;94978.31;6064722;28;109160;-60
2023/01/26 10:48:18;;;;;;;2.83;2.60;;;;;;;20.63;28.95;94970.63;6064688;28;110236;-60
2023/01/26 10:51:25;;;;;;;2.43;2.33;;;;;;;20.64;29.10;94974.84;6054835;28;110130;-60
2023/01/26 10:54:28;;;;;;;2.23;2.13;;;;;;;20.65;29.12;94952.50;6063866;28;109135;-62
2023/01/26 10:57:34;;;;;;;2.20;2.10;;;;;;;20.64;29.23;94945.63;6064130;28;109301;-61
2023/01/26 11:00:41;;;;;;;2.23;2.03;;;;;;;20.63;29.20;94934.19;6055155;28;109180;-60
2023/01/26 11:04:01;;;;;;;2.17;1.97;;;;;;;20.63;29.14;94931.53;6063623;28;109407;-60
2023/01/26 11:07:28;;;;;;;2.00;1.90;;;;;;;20.63;29.30;94930.75;6064248;28;109213;-62
2023/01/26 11:10:32;;;;;;;1.90;1.80;;;;;;;20.63;29.22;94922.78;6063874;28;109320;-60
2023/01/26 11:13:38;;;;;;;2.10;1.90;;;;;;;20.59;29.23;94924.47;6053600;28;110464;-60
2023/01/26 11:16:50;;;;;;;2.17;2.07;;;;;;;20.60;29.02;94910.88;6064255;28;110080;-60
2023/01/26 11:20:07;;;;;;;1.97;1.87;;;;;;;20.61;29.36;94912.44;6067331;28;109234;-59
2023/01/26 11:23:23;;;;;;;2.17;1.97;;;;;;;20.60;29.17;94897.56;6062900;28;109244;-62
2023/01/26 11:27:01;;;;;;;2.27;2.07;;;;;;;20.58;29.58;94883.00;6067172;28;110149;-62
2023/01/26 11:30:37;;;;;;;1.90;1.80;;;;;;;20.59;29.20;94879.25;6067532;28;109146;-60
2023/01/26 11:33:50;;;;;;;2.00;1.90;;;;;;;20.51;29.50;94858.72;6067744;28;110131;-60
2023/01/26 11:37:02;;;;;;;2.10;2.00;;;;;;;20.61;29.31;94871.78;6059321;28;110737;-60
2023/01/26 11:40:23;;;;;;;2.13;2.03;;;;;;;20.47;29.26;94844.44;6067991;28;109104;-61
2023/01/26 11:43:50;;;;;;;2.17;1.97;;;;;;;20.58;29.12;94851.91;6067724;28;109114;-60
2023/01/26 11:47:17;;;;;;;2.07;1.90;;;;;;;20.58;29.15;94848.47;6057620;28;108907;-60
2023/01/26 11:50:33;;;;;;;2.50;2.30;;;;;;;20.58;29.20;94859.09;6068039;28;110791;-60
2023/01/26 11:53:55;;;;;;;2.23;2.03;;;;;;;20.58;28.91;94851.91;6067733;28;109165;-61
2023/01/26 11:57:09;;;;;;;1.90;1.80;;;;;;;20.51;29.15;94848.88;6062530;28;109155;-61
2023/01/26 12:00:17;;;;;;;2.10;2.00;;;;;;;20.57;28.81;94862.84;6061517;28;110433;-61
2023/01/26 12:03:42;;;;;;;2.47;2.27;;;;;;;20.58;29.12;94853.78;6067327;28;109051;-61
2023/01/26 12:06:52;;;;;;;2.37;2.17;;;;;;;20.52;28.97;94836.38;6067461;28;109206;-60
2023/01/26 12:09:56;;;;;;;2.27;2.13;;;;;;;20.58;28.93;94843.13;6056419;28;109025;-63
2023/01/26 12:13:08;;;;;;;2.50;2.30;;;;;;;20.58;28.82;94845.78;6067206;28;109290;-61
2023/01/26 12:16:18;;;;;;;2.30;2.10;;;;;;;20.57;28.81;94826.41;6067384;28;110078;-61
2023/01/26 12:19:36;;;;;;;2.80;2.60;;;;;;;20.57;28.70;94817.63;6066171;28;109022;-61
2023/01/26 12:22:46;;;;;;;2.20;2.10;;;;;;;20.57;28.76;94820.31;6061748;28;109705;-61
2023/01/26 12:25:55;;;;;;;2.53;2.37;;;;;;;20.58;28.78;94804.03;6067050;28;109360;-61
2023/01/26 12:29:08;;;;;;;2.50;2.30;;;;;;;20.59;28.82;94802.16;6066793;28;109119;-60
2023/01/26 12:32:13;;;;;;;2.37;2.27;;;;;;;20.67;28.73;94801.47;6055157;28;109118;-61
2023/01/26 12:35:29;;;;;;;2.50;2.40;;;;;;;20.75;28.78;94790.09;6067044;28;110322;-60
2023/01/26 12:38:45;;;;;;;2.80;2.50;;;;;;;20.77;28.75;94781.81;6066904;28;109996;-61
2023/01/26 12:42:03;;;;;;;2.20;2.00;;;;;;;20.79;28.88;94796.38;6066509;28;109109;-61
2023/01/26 12:45:14;;;;;;;2.17;2.07;;;;;;;20.80;28.45;94781.19;6059518;28;111174;-61
2023/01/26 12:48:25;;;;;;;2.10;2.00;;;;;;;20.80;29.10;94781.97;6066752;28;110109;-61
2023/01/26 12:51:42;;;;;;;;;;;;;;;;;;;;;
2023/01/26 12:54:58;;;;;;;2.50;2.30;;;;;;;20.80;29.23;94778.53;6056239;28;109013;-60
2023/01/26 12:58:04;;;;;;;2.60;2.40;;;;;;;20.82;29.14;94773.69;6066513;28;108909;-61
2023/01/26 13:01:11;;;;;;;2.13;2.00;;;;;;;20.77;29.22;94755.22;6066460;28;109034;-61
2023/01/26 13:04:16;;;;;;;2.73;2.53;;;;;;;20.86;28.84;94769.38;6065608;28;109048;-61
2023/01/26 13:07:31;;;;;;;2.23;2.13;;;;;;;20.81;29.25;94772.91;6055748;28;109124;-61
2023/01/26 13:10:49;;;;;;;2.73;2.53;;;;;;;20.69;29.51;94761.28;6065911;28;109068;-61
2023/01/26 13:13:56;;;;;;;3.17;2.97;;;;;;;20.68;29.50;94773.78;6066101;28;109084;-61
2023/01/26 13:17:54;;;;;;;3.10;2.90;;;;;;;20.69;29.43;94771.91;6055964;28;110180;-61
2023/01/26 13:20:59;;;;;;;2.70;2.50;;;;;;;20.66;29.13;94769.84;6066269;28;110074;-61
2023/01/26 13:24:03;;;;;;;2.80;2.60;;;;;;;20.64;28.97;94767.47;6066044;28;109110;-60
2023/01/26 13:27:28;;;;;;;2.70;2.50;;;;;;;20.63;29.29;94758.72;6066133;28;109355;-60
2023/01/26 13:30:43;;;;;;;2.80;2.60;;;;;;;20.62;29.23;94756.38;6056928;28;109138;-60
2023/01/26 13:33:49;;;;;;;2.80;2.60;;;;;;;20.63;29.21;94749.97;6065697;28;109120;-61
2023/01/26 13:36:56;;;;;;;3.23;2.80;;;;;;;20.61;28.89;94752.16;6065020;28;109501;-62
2023/01/26 13:40:04;;;;;;;2.87;2.67;;;;;;;20.54;29.09;94739.28;6056261;28;109630;-62
2023/01/26 13:43:16;;;;;;;3.23;2.77;;;;;;;20.59;29.38;94736.50;6064992;28;109092;-62
2023/01/26 13:46:34;;;;;;;3.40;3.10;;;;;;;20.60;29.06;94745.25;6065904;28;109826;-62
2023/01/26 13:49:39;;;;;;;3.80;3.50;;;;;;;20.53;28.81;94723.66;6065671;28;109127;-62
2023/01/26 13:52:45;;;;;;;3.17;2.97;;;;;;;20.59;28.95;94733.06;6055046;28;110804;-61
2023/01/26 13:55:54;;;;;;;3.20;2.97;;;;;;;20.58;29.14;94728.84;6065628;28;109042;-61
2023/01/26 13:59:11;;;;;;;2.93;2.73;;;;;;;20.58;29.15;94723.50;6065831;28;110053;-61
2023/01/26 14:02:23;;;;;;;3.67;3.37;;;;;;;20.58;29.02;94705.69;6058887;28;110151;-62
2023/01/26 14:05:30;;;;;;;3.73;3.43;;;;;;;20.49;29.09;94690.75;6064418;28;109127;-60
2023/01/26 14:08:33;;;;;;;3.80;3.50;;;;;;;20.58;28.87;94696.94;6064389;28;108928;-61
2023/01/26 14:11:36;;;;;;;3.90;3.60;;;;;;;20.58;29.04;94699.59;6065073;28;109122;-61
2023/01/26 14:14:41;;;;;;;3.90;3.60;;;;;;;20.59;29.13;94695.84;6055229;28;109270;-61
2023/01/26 14:17:50;;;;;;;3.30;3.10;;;;;;;20.54;29.07;94688.00;6065116;28;109282;-61
2023/01/26 14:21:02;;;;;;;3.57;3.27;;;;;;;20.55;29.03;94690.34;6065144;28;109084;-61
2023/01/26 14:24:09;;;;;;;4.10;3.70;;;;;;;20.54;29.04;94688.78;6065063;28;109384;-61
2023/01/26 14:27:35;;;;;;;4.10;3.80;;;;;;;20.56;29.05;94689.25;6054324;28;109204;-61
2023/01/26 14:30:40;;;;;;;4.17;3.80;;;;;;;20.56;29.13;94685.81;6064746;28;109989;-61
2023/01/26 14:33:44;;;;;;;3.70;3.40;;;;;;;20.56;28.94;94677.84;6063755;28;109565;-61
2023/01/26 14:36:47;;;;;;;4.03;3.73;;;;;;;20.56;29.17;94680.50;6054238;28;110185;-61
2023/01/26 14:40:18;;;;;;;3.67;3.40;;;;;;;20.56;29.07;94680.50;6063314;28;109085;-61
2023/01/26 14:43:21;;;;;;;3.83;3.53;;;;;;;20.55;29.06;94678.94;6064772;28;110516;-61
2023/01/26 14:46:35;;;;;;;3.90;3.60;;;;;;;20.54;29.17;94678.16;6064728;28;110467;-61
2023/01/26 14:49:45;;;;;;;3.87;3.57;;;;;;;20.54;29.18;94677.38;6054147;28;108830;-61
2023/01/26 14:52:48;;;;;;;4.50;4.17;;;;;;;20.52;29.09;94674.22;6064525;28;109114;-61
2023/01/26 14:55:53;;;;;;;4.00;3.63;;;;;;;20.54;29.08;94664.88;6068513;28;110085;-60
2023/01/26 14:58:56;;;;;;;4.90;3.77;;;;;;;20.55;29.28;94673.63;6063107;28;109329;-60
2023/01/26 15:02:15;;;;;;;4.10;3.73;;;;;;;20.54;29.21;94678.16;6063169;28;110029;-60
2023/01/26 15:05:20;;;;;;;4.00;3.70;;;;;;;20.54;28.99;94672.06;6068340;28;109051;-61
2023/01/26 15:08:25;;;;;;;4.07;3.77;;;;;;;20.54;29.09;94678.16;6068288;28;109436;-60
2023/01/26 15:14:57;;;;;;;3.90;3.60;;;;;;;20.54;29.16;94672.06;6068200;28;109341;-61
2023/01/26 15:18:15;;;;;;;3.60;3.30;;;;;;;20.55;29.19;94674.41;6068321;28;110283;-61
2023/01/26 15:21:21;;;;;;;4.23;3.90;;;;;;;20.53;29.14;94663.28;6063425;28;109113;-61
2023/01/26 15:24:25;;;;;;;3.90;3.60;;;;;;;20.52;29.26;94656.41;6062676;28;110116;-61